createdAt,value
2022-08-26T00:01:53.970Z,5.60
2022-08-26T00:04:25.106Z,5.60
2022-08-26T00:06:53.758Z,6.00
2022-08-26T00:09:21.067Z,5.80
2022-08-26T00:11:48.032Z,5.70
2022-08-26T00:14:16.885Z,6.00
2022-08-26T00:16:47.897Z,5.40
2022-08-26T00:19:21.724Z,5.50
2022-08-26T00:21:50.164Z,5.80
2022-08-26T00:24:21.771Z,6.00
2022-08-26T00:26:50.084Z,5.90
2022-08-26T00:29:19.252Z,6.40
2022-08-26T00:31:48.384Z,6.50
2022-08-26T00:34:19.228Z,6.30
2022-08-26T00:36:47.498Z,5.70
2022-08-26T00:39:20.021Z,6.20
2022-08-26T00:41:47.574Z,5.30
2022-08-26T00:44:14.491Z,5.60
2022-08-26T00:46:47.290Z,5.90
2022-08-26T00:49:25.793Z,5.70
2022-08-26T00:51:56.711Z,5.90
2022-08-26T00:54:28.412Z,5.50
2022-08-26T00:57:02.672Z,5.90
2022-08-26T00:59:33.159Z,6.40
2022-08-26T01:02:02.736Z,5.80
2022-08-26T01:04:34.725Z,6.10
2022-08-26T01:07:02.415Z,6.40
2022-08-26T01:09:30.914Z,6.00
2022-08-26T01:12:02.259Z,6.00
2022-08-26T01:14:36.728Z,6.20
2022-08-26T01:17:07.489Z,6.10
2022-08-26T01:19:51.112Z,5.80
2022-08-26T01:23:05.765Z,6.30
2022-08-26T01:25:43.097Z,6.00
2022-08-26T01:28:23.463Z,6.50
2022-08-26T01:30:55.081Z,6.50
2022-08-26T01:33:42.507Z,6.20
2022-08-26T01:36:11.910Z,5.90
2022-08-26T01:38:40.552Z,6.40
2022-08-26T01:41:16.015Z,6.30
2022-08-26T01:43:53.330Z,6.10
2022-08-26T01:46:24.360Z,5.70
2022-08-26T01:48:55.146Z,5.70
2022-08-26T01:51:25.468Z,6.30
2022-08-26T01:53:52.702Z,5.90
2022-08-26T01:56:23.178Z,5.90
2022-08-26T01:58:56.918Z,5.80
2022-08-26T02:01:29.221Z,5.50
2022-08-26T02:04:21.561Z,5.00
2022-08-26T02:06:49.459Z,6.20
2022-08-26T02:09:19.813Z,6.30
2022-08-26T02:11:47.880Z,6.20
2022-08-26T02:14:43.733Z,6.20
2022-08-26T02:17:11.981Z,6.10
2022-08-26T02:19:47.544Z,8.10
2022-08-26T02:22:20.795Z,8.40
2022-08-26T02:24:57.368Z,10.00
2022-08-26T02:27:32.927Z,11.80
2022-08-26T02:30:25.006Z,12.30
2022-08-26T02:32:53.952Z,11.90
2022-08-26T02:35:23.628Z,14.90
2022-08-26T02:37:52.421Z,14.40
2022-08-26T02:40:25.516Z,15.10
2022-08-26T02:42:56.936Z,16.10
2022-08-26T02:45:24.598Z,19.60
2022-08-26T02:47:52.466Z,18.90
2022-08-26T02:50:20.494Z,21.40
2022-08-26T02:52:48.573Z,23.50
2022-08-26T02:55:16.120Z,25.50
2022-08-26T02:57:43.602Z,26.90
2022-08-26T03:00:14.721Z,26.40
2022-08-26T03:02:42.238Z,26.50
2022-08-26T03:05:11.382Z,22.90
2022-08-26T03:07:38.188Z,24.90
2022-08-26T03:10:08.487Z,25.20
2022-08-26T03:12:37.081Z,25.40
2022-08-26T03:15:15.927Z,28.30
2022-08-26T03:17:47.702Z,28.60
2022-08-26T03:20:17.381Z,28.40
2022-08-26T03:22:45.366Z,23.70
2022-08-26T03:25:16.720Z,24.50
2022-08-26T03:27:44.341Z,29.90
2022-08-26T03:30:32.166Z,32.10
2022-08-26T03:33:00.844Z,34.40
2022-08-26T03:35:28.110Z,36.40
2022-08-26T03:37:55.505Z,39.10
2022-08-26T03:40:23.690Z,36.80
2022-08-26T03:42:55.947Z,37.60
2022-08-26T03:45:22.761Z,26.30
2022-08-26T03:47:49.537Z,40.40
2022-08-26T03:50:22.904Z,38.00
2022-08-26T03:52:53.184Z,31.20
2022-08-26T03:55:25.796Z,33.40
2022-08-26T03:57:54.531Z,39.40
2022-08-26T04:00:22.292Z,41.60
2022-08-26T04:02:51.218Z,40.40
2022-08-26T04:05:22.763Z,39.20
2022-08-26T04:07:51.745Z,34.00
2022-08-26T04:10:28.699Z,39.10
2022-08-26T04:12:58.796Z,37.40
2022-08-26T04:15:27.232Z,38.20
2022-08-26T04:17:55.985Z,35.60
2022-08-26T04:20:23.973Z,43.40
2022-08-26T04:22:50.749Z,42.40
2022-08-26T04:25:18.582Z,33.10
2022-08-26T04:27:47.446Z,33.50
2022-08-26T04:30:16.715Z,32.60
2022-08-26T04:32:44.006Z,37.60
2022-08-26T04:35:11.126Z,34.60
2022-08-26T04:37:38.160Z,43.80
2022-08-26T04:40:06.657Z,39.90
2022-08-26T04:42:33.575Z,44.10
2022-08-26T04:45:01.633Z,35.50
2022-08-26T04:47:32.738Z,36.40
2022-08-26T04:50:00.249Z,37.30
2022-08-26T04:52:29.109Z,32.10
2022-08-26T04:54:58.492Z,37.50
2022-08-26T04:57:25.387Z,34.80
2022-08-26T04:59:53.206Z,37.30
2022-08-26T05:02:20.627Z,35.10
2022-08-26T05:04:47.506Z,34.30
2022-08-26T05:07:18.699Z,41.00
2022-08-26T05:09:46.064Z,40.40
2022-08-26T05:12:12.781Z,36.20
2022-08-26T05:14:41.500Z,34.80
2022-08-26T05:17:08.680Z,33.70
2022-08-26T05:19:37.153Z,33.00
2022-08-26T05:22:09.568Z,35.70
2022-08-26T05:24:36.718Z,33.20
2022-08-26T05:27:11.437Z,29.40
2022-08-26T05:29:39.556Z,34.70
2022-08-26T05:32:07.138Z,36.20
2022-08-26T05:34:34.259Z,20.80
2022-08-26T05:37:01.769Z,30.80
2022-08-26T05:39:29.171Z,32.20
2022-08-26T05:41:56.150Z,32.90
2022-08-26T05:44:22.984Z,30.90
2022-08-26T05:46:49.823Z,28.70
2022-08-26T05:49:18.616Z,30.20
2022-08-26T05:51:47.903Z,27.30
2022-08-26T05:54:21.297Z,24.40
2022-08-26T05:56:49.245Z,26.80
2022-08-26T05:59:16.217Z,30.50
2022-08-26T06:01:48.222Z,31.30
2022-08-26T06:04:15.133Z,26.60
2022-08-26T06:06:43.029Z,25.90
2022-08-26T06:09:10.903Z,23.80
2022-08-26T06:11:39.194Z,23.90
2022-08-26T06:14:10.013Z,23.90
2022-08-26T06:16:40.747Z,23.00
2022-08-26T06:19:11.759Z,25.50
2022-08-26T06:21:44.932Z,29.30
2022-08-26T06:24:33.098Z,23.70
2022-08-26T06:27:05.830Z,23.60
2022-08-26T06:29:36.570Z,25.10
2022-08-26T06:32:05.764Z,21.90
2022-08-26T06:34:33.857Z,22.10
2022-08-26T06:37:03.354Z,23.10
2022-08-26T06:39:31.843Z,21.90
2022-08-26T06:42:06.170Z,22.20
2022-08-26T06:44:34.774Z,26.60
2022-08-26T06:47:01.887Z,23.20
2022-08-26T06:49:28.698Z,26.10
2022-08-26T06:51:58.955Z,25.30
2022-08-26T06:54:30.454Z,25.50
2022-08-26T06:56:58.490Z,25.70
2022-08-26T06:59:26.244Z,25.50
2022-08-26T07:01:54.759Z,26.40
2022-08-26T07:04:24.549Z,23.30
2022-08-26T07:06:53.675Z,23.40
2022-08-26T07:09:27.883Z,23.70
2022-08-26T07:11:56.423Z,23.90
2022-08-26T07:14:25.210Z,24.60
2022-08-26T07:16:53.039Z,26.20
2022-08-26T07:19:27.587Z,25.40
2022-08-26T07:22:02.273Z,28.10
2022-08-26T07:24:33.288Z,24.10
2022-08-26T07:27:06.805Z,22.50
2022-08-26T07:29:39.110Z,23.30
2022-08-26T07:32:07.652Z,23.90
2022-08-26T07:34:34.496Z,21.80
2022-08-26T07:37:02.045Z,22.40
2022-08-26T07:39:31.430Z,23.10
2022-08-26T07:42:07.875Z,25.40
2022-08-26T07:44:37.866Z,19.90
2022-08-26T07:47:10.453Z,24.70
2022-08-26T07:49:57.556Z,22.30
2022-08-26T07:52:28.949Z,20.50
2022-08-26T07:54:59.687Z,19.60
2022-08-26T07:57:28.416Z,18.50
2022-08-26T07:59:56.120Z,17.90
2022-08-26T08:02:26.193Z,19.40
2022-08-26T08:04:53.553Z,21.20
2022-08-26T08:07:38.536Z,18.80
2022-08-26T08:10:11.836Z,20.40
2022-08-26T08:12:41.865Z,22.60
2022-08-26T08:15:13.376Z,20.20
2022-08-26T08:17:44.561Z,22.10
2022-08-26T08:20:14.124Z,24.70
2022-08-26T08:22:43.042Z,18.50
2022-08-26T08:25:12.250Z,17.80
2022-08-26T08:27:42.228Z,18.80
2022-08-26T08:30:13.691Z,17.90
2022-08-26T08:32:43.649Z,16.60
2022-08-26T08:35:15.068Z,16.50
2022-08-26T08:37:44.464Z,16.70
2022-08-26T08:40:18.290Z,18.00
2022-08-26T08:45:48.287Z,20.10
2022-08-26T08:48:31.607Z,19.20
2022-08-26T08:51:35.718Z,17.10
2022-08-26T08:54:04.609Z,15.60
2022-08-26T08:56:59.718Z,12.70
2022-08-26T08:59:35.301Z,13.50
2022-08-26T09:02:11.127Z,13.90
2022-08-26T09:05:00.095Z,13.70
2022-08-26T09:07:44.353Z,12.80
2022-08-26T09:10:32.360Z,14.30
2022-08-26T09:13:02.553Z,9.20
2022-08-26T09:15:59.928Z,13.10
2022-08-26T09:18:46.052Z,11.60
2022-08-26T09:21:17.932Z,14.90
2022-08-26T09:23:49.466Z,10.70
2022-08-26T09:26:42.375Z,12.80
2022-08-26T09:29:24.301Z,12.70
2022-08-26T09:32:13.700Z,11.50
2022-08-26T09:35:22.867Z,12.30
2022-08-26T09:40:30.530Z,14.10
2022-08-26T09:43:22.064Z,12.90
2022-08-26T09:46:09.159Z,10.30
2022-08-26T09:48:40.641Z,12.90
2022-08-26T09:51:35.576Z,12.00
2022-08-26T09:54:05.719Z,13.00
2022-08-26T09:56:39.199Z,11.10
2022-08-26T09:59:12.087Z,10.10
2022-08-26T10:01:43.238Z,12.30
2022-08-26T10:04:20.700Z,12.00
2022-08-26T10:06:59.631Z,10.60
2022-08-26T10:09:28.798Z,10.90
2022-08-26T10:12:06.568Z,12.60
2022-08-26T10:14:39.851Z,12.30
2022-08-26T10:17:30.902Z,13.20
2022-08-26T10:20:25.886Z,10.90
2022-08-26T10:23:07.358Z,10.40
2022-08-26T10:25:43.175Z,9.30
2022-08-26T10:28:20.819Z,9.90
2022-08-26T10:30:59.629Z,8.40
2022-08-26T10:33:26.424Z,6.70
2022-08-26T10:36:30.264Z,6.00
2022-08-26T10:39:03.864Z,8.00
2022-08-26T10:41:37.551Z,7.10
2022-08-26T10:44:08.404Z,7.10
2022-08-26T10:46:43.127Z,7.30
2022-08-26T10:49:15.304Z,7.30
2022-08-26T10:51:56.146Z,8.30
2022-08-26T10:54:34.182Z,7.00
2022-08-26T10:57:31.134Z,7.40
2022-08-26T11:00:34.037Z,8.80
2022-08-26T11:03:25.846Z,10.00
2022-08-26T11:06:27.516Z,7.70
2022-08-26T11:09:01.228Z,10.00
2022-08-26T11:11:40.118Z,9.70
2022-08-26T11:14:29.176Z,8.90
2022-08-26T11:16:59.773Z,7.50
2022-08-26T11:19:58.907Z,9.00
2022-08-26T11:22:38.176Z,7.00
2022-08-26T11:25:18.481Z,9.50
2022-08-26T11:27:48.332Z,7.30
2022-08-26T11:30:18.405Z,8.50
2022-08-26T11:32:56.264Z,7.90
2022-08-26T11:35:26.005Z,9.30
2022-08-26T11:38:23.459Z,8.90
2022-08-26T11:41:11.514Z,7.80
2022-08-26T11:43:40.899Z,7.10
2022-08-26T11:46:13.162Z,7.50
2022-08-26T11:48:43.449Z,8.90
2022-08-26T11:51:16.268Z,8.60
2022-08-26T11:53:47.049Z,8.60
2022-08-26T11:56:34.613Z,7.80
2022-08-26T11:59:13.132Z,8.20
2022-08-26T12:01:49.066Z,8.60
2022-08-26T12:04:32.302Z,5.80
2022-08-26T12:07:02.200Z,6.40
2022-08-26T12:09:35.529Z,5.60
2022-08-26T12:12:23.062Z,4.70
2022-08-26T12:15:10.604Z,5.60
2022-08-26T12:17:39.451Z,5.90
2022-08-26T12:20:28.912Z,6.30
2022-08-26T12:22:56.709Z,5.70
2022-08-26T12:25:25.379Z,5.50
2022-08-26T12:27:54.004Z,5.60
2022-08-26T12:30:26.189Z,5.40
2022-08-26T12:33:22.421Z,5.50
2022-08-26T12:35:56.362Z,6.80
2022-08-26T12:38:26.675Z,4.60
2022-08-26T12:40:55.062Z,5.10
2022-08-26T12:43:54.610Z,3.90
2022-08-26T12:46:28.353Z,4.90
2022-08-26T12:49:01.106Z,5.70
2022-08-26T12:51:32.493Z,3.40
2022-08-26T12:53:59.914Z,5.60
2022-08-26T12:56:39.509Z,5.10
2022-08-26T12:59:25.133Z,4.80
2022-08-26T13:01:54.079Z,5.10
2022-08-26T13:04:43.261Z,4.90
2022-08-26T13:07:24.837Z,4.20
2022-08-26T13:09:55.857Z,4.60
2022-08-26T13:12:27.122Z,4.40
2022-08-26T13:14:54.142Z,4.20
2022-08-26T13:17:21.240Z,4.40
2022-08-26T13:19:48.045Z,5.50
2022-08-26T13:22:24.742Z,4.40
2022-08-26T13:24:56.215Z,4.80
2022-08-26T13:27:26.250Z,4.20
2022-08-26T13:29:55.499Z,4.00
2022-08-26T13:32:26.838Z,3.80
2022-08-26T13:34:57.074Z,3.90
2022-08-26T13:37:34.259Z,3.70
2022-08-26T13:40:06.491Z,3.00
2022-08-26T13:42:34.509Z,3.10
2022-08-26T13:45:02.147Z,4.10
2022-08-26T13:47:28.976Z,3.90
2022-08-26T13:49:56.509Z,4.30
2022-08-26T13:52:30.065Z,3.30
2022-08-26T13:55:00.524Z,4.20
2022-08-26T13:57:30.273Z,3.80
2022-08-26T13:59:59.287Z,4.50
2022-08-26T14:02:28.302Z,3.90
2022-08-26T14:04:55.992Z,4.30
2022-08-26T14:07:23.488Z,3.70
2022-08-26T14:09:50.639Z,3.90
2022-08-26T14:12:17.761Z,4.00
2022-08-26T14:14:45.041Z,4.10
2022-08-26T14:17:19.451Z,4.40
2022-08-26T14:19:51.125Z,4.60
2022-08-26T14:22:22.254Z,5.60
2022-08-26T14:24:50.504Z,5.00
2022-08-26T14:27:17.558Z,4.00
2022-08-26T14:29:44.477Z,4.20
2022-08-26T14:32:23.693Z,4.20
2022-08-26T14:34:51.315Z,4.50
2022-08-26T14:37:19.787Z,3.50
2022-08-26T14:39:47.001Z,3.40
2022-08-26T14:42:19.892Z,3.00
2022-08-26T14:44:56.147Z,3.00
2022-08-26T14:47:23.240Z,2.50
2022-08-26T14:49:50.461Z,3.20
2022-08-26T14:52:17.836Z,2.80
2022-08-26T14:54:45.457Z,2.60
2022-08-26T14:57:14.848Z,2.50
2022-08-26T14:59:49.965Z,2.60
2022-08-26T15:02:32.429Z,3.10
2022-08-26T15:05:02.818Z,2.40
2022-08-26T15:07:30.030Z,2.10
2022-08-26T15:09:56.795Z,2.70
2022-08-26T15:12:23.639Z,2.70
2022-08-26T15:14:50.555Z,3.10
2022-08-26T15:17:17.728Z,3.20
2022-08-26T15:19:44.668Z,3.00
2022-08-26T15:22:11.787Z,2.80
2022-08-26T15:24:38.652Z,2.80
2022-08-26T15:27:05.491Z,2.60
2022-08-26T15:29:32.300Z,3.10
2022-08-26T15:32:04.839Z,2.10
2022-08-26T15:34:32.168Z,2.80
2022-08-26T15:36:58.922Z,2.40
2022-08-26T15:39:26.102Z,2.30
2022-08-26T15:41:52.928Z,2.70
2022-08-26T15:44:19.859Z,2.80
2022-08-26T15:46:48.430Z,3.40
2022-08-26T15:49:18.771Z,2.90
2022-08-26T15:51:48.136Z,2.60
2022-08-26T15:54:19.535Z,2.80
2022-08-26T15:56:48.659Z,2.80
2022-08-26T15:59:17.007Z,2.90
2022-08-26T16:01:43.994Z,3.40
2022-08-26T16:04:11.562Z,2.30
2022-08-26T16:06:41.465Z,3.20
2022-08-26T16:09:09.313Z,3.10
2022-08-26T16:11:37.303Z,2.70
2022-08-26T16:14:05.777Z,3.00
2022-08-26T16:16:32.655Z,3.40
2022-08-26T16:19:04.266Z,3.20
2022-08-26T16:21:34.152Z,2.20
2022-08-26T16:24:01.144Z,2.70
2022-08-26T16:26:35.357Z,2.40
2022-08-26T16:29:08.693Z,2.40
2022-08-26T16:31:38.053Z,2.50
2022-08-26T16:34:07.722Z,2.30
2022-08-26T16:36:37.479Z,2.50
2022-08-26T16:39:08.132Z,3.10
2022-08-26T16:41:35.718Z,2.40
2022-08-26T16:44:04.075Z,2.10
2022-08-26T16:46:31.652Z,2.20
2022-08-26T16:49:01.552Z,2.80
2022-08-26T16:51:28.888Z,2.90
2022-08-26T16:53:57.692Z,2.00
2022-08-26T16:56:34.180Z,2.60
2022-08-26T16:59:05.030Z,2.00
2022-08-26T17:01:32.607Z,3.00
2022-08-26T17:03:59.515Z,3.10
2022-08-26T17:06:26.328Z,2.90
2022-08-26T17:08:54.115Z,2.50
2022-08-26T17:11:20.903Z,2.10
2022-08-26T17:13:47.771Z,2.30
2022-08-26T17:16:15.339Z,2.60
2022-08-26T17:18:42.353Z,2.50
2022-08-26T17:21:13.360Z,1.90
2022-08-26T17:23:42.952Z,2.20
2022-08-26T17:26:12.511Z,2.40
2022-08-26T17:28:40.804Z,1.90
2022-08-26T17:31:10.056Z,1.30
2022-08-26T17:33:38.128Z,2.00
2022-08-26T17:36:07.467Z,2.70
2022-08-26T17:38:35.575Z,2.60
2022-08-26T17:41:02.846Z,1.90
2022-08-26T17:43:29.828Z,1.40
2022-08-26T17:46:07.278Z,1.60
2022-08-26T17:48:37.069Z,1.90
2022-08-26T17:51:13.964Z,1.70
2022-08-26T17:53:42.770Z,1.60
2022-08-26T17:56:14.770Z,1.60
2022-08-26T17:58:48.056Z,1.60
2022-08-26T18:01:20.942Z,1.70
2022-08-26T18:03:48.683Z,2.00
2022-08-26T18:06:15.693Z,1.60
2022-08-26T18:08:42.719Z,1.60
2022-08-26T18:11:23.129Z,2.10
2022-08-26T18:13:50.762Z,1.60
2022-08-26T18:16:19.756Z,1.60
2022-08-26T18:18:51.800Z,1.30
2022-08-26T18:21:24.171Z,1.50
2022-08-26T18:23:52.565Z,1.60
2022-08-26T18:26:27.750Z,1.30
2022-08-26T18:28:54.955Z,1.70
2022-08-26T18:31:22.258Z,1.70
2022-08-26T18:33:50.045Z,1.40
2022-08-26T18:36:16.713Z,1.50
2022-08-26T18:38:43.663Z,1.70
2022-08-26T18:41:10.892Z,1.70
2022-08-26T18:43:37.919Z,1.50
2022-08-26T18:46:08.430Z,1.30
2022-08-26T18:48:37.255Z,1.50
2022-08-26T18:51:04.951Z,1.40
2022-08-26T18:53:31.869Z,1.50
2022-08-26T18:55:58.908Z,1.30
2022-08-26T18:58:26.147Z,1.60
2022-08-26T19:00:53.172Z,1.30
2022-08-26T19:03:19.971Z,1.80
2022-08-26T19:05:46.903Z,1.50
2022-08-26T19:08:13.850Z,1.50
2022-08-26T19:10:41.552Z,1.50
2022-08-26T19:13:09.699Z,1.40
2022-08-26T19:15:45.479Z,1.40
2022-08-26T19:18:14.627Z,1.50
2022-08-26T19:20:46.669Z,1.50
2022-08-26T19:23:31.004Z,1.40
2022-08-26T19:25:59.588Z,1.40
2022-08-26T19:28:26.352Z,1.30
2022-08-26T19:30:53.559Z,1.50
2022-08-26T19:33:20.624Z,1.20
2022-08-26T19:35:47.917Z,1.60
2022-08-26T19:38:15.446Z,2.00
2022-08-26T19:40:43.368Z,1.60
2022-08-26T19:43:12.008Z,1.20
2022-08-26T19:45:39.111Z,1.40
2022-08-26T19:48:06.493Z,1.40
2022-08-26T19:50:34.946Z,1.10
2022-08-26T19:53:04.090Z,1.10
2022-08-26T19:55:31.866Z,1.40
2022-08-26T19:57:58.743Z,1.10
2022-08-26T20:00:29.284Z,1.40
2022-08-26T20:02:56.619Z,1.60
2022-08-26T20:05:25.929Z,1.10
2022-08-26T20:07:53.450Z,1.40
2022-08-26T20:10:23.575Z,1.80
2022-08-26T20:12:51.902Z,1.50
2022-08-26T20:15:23.885Z,2.10
2022-08-26T20:17:51.393Z,1.70
2022-08-26T20:20:37.239Z,1.80
2022-08-26T20:23:05.167Z,2.10
2022-08-26T20:25:33.473Z,1.90
2022-08-26T20:28:01.294Z,1.60
2022-08-26T20:30:28.204Z,1.70
2022-08-26T20:32:55.182Z,2.10
2022-08-26T20:35:22.551Z,1.30
2022-08-26T20:37:49.491Z,2.40
2022-08-26T20:40:16.584Z,2.40
2022-08-26T20:42:43.565Z,1.90
2022-08-26T20:45:11.491Z,2.50
2022-08-26T20:47:38.414Z,2.70
2022-08-26T20:50:06.214Z,2.40
2022-08-26T20:52:33.266Z,2.20
2022-08-26T20:55:00.028Z,2.30
2022-08-26T20:57:26.795Z,2.30
2022-08-26T20:59:53.605Z,2.30
2022-08-26T21:02:20.892Z,1.80
2022-08-26T21:04:47.801Z,2.10
2022-08-26T21:07:14.745Z,2.10
2022-08-26T21:09:41.480Z,2.20
2022-08-26T21:12:09.420Z,2.50
2022-08-26T21:14:36.204Z,2.10
2022-08-26T21:17:04.316Z,2.20
2022-08-26T21:19:31.103Z,2.00
2022-08-26T21:21:59.397Z,2.30
2022-08-26T21:24:26.333Z,2.50
2022-08-26T21:26:53.079Z,2.20
2022-08-26T21:29:22.046Z,2.10
2022-08-26T21:31:48.974Z,2.10
2022-08-26T21:34:18.987Z,2.40
2022-08-26T21:36:47.753Z,2.10
2022-08-26T21:39:15.305Z,2.40
2022-08-26T21:41:44.467Z,2.70
2022-08-26T21:44:13.615Z,2.70
2022-08-26T21:46:41.751Z,2.40
2022-08-26T21:49:12.316Z,2.70
2022-08-26T21:51:45.077Z,2.50
2022-08-26T21:54:13.520Z,2.50
2022-08-26T21:56:47.060Z,2.90
2022-08-26T21:59:17.416Z,2.90
2022-08-26T22:01:44.685Z,2.30
2022-08-26T22:04:11.535Z,3.10
2022-08-26T22:06:48.805Z,2.60
2022-08-26T22:09:20.302Z,3.00
2022-08-26T22:11:47.730Z,2.60
2022-08-26T22:14:17.578Z,3.10
2022-08-26T22:16:50.366Z,3.60
2022-08-26T22:19:19.995Z,3.20
2022-08-26T22:21:51.984Z,2.70
2022-08-26T22:24:21.774Z,3.10
2022-08-26T22:26:49.801Z,4.00
2022-08-26T22:29:18.759Z,3.50
2022-08-26T22:31:46.452Z,2.70
2022-08-26T22:34:17.212Z,3.30
2022-08-26T22:36:47.924Z,4.80
2022-08-26T22:39:22.199Z,3.80
2022-08-26T22:41:50.347Z,3.70
2022-08-26T22:44:20.459Z,3.70
2022-08-26T22:46:49.156Z,3.20
2022-08-26T22:49:16.800Z,3.00
2022-08-26T22:51:45.688Z,3.50
2022-08-26T22:54:14.337Z,3.30
2022-08-26T22:56:41.498Z,3.40
2022-08-26T22:59:10.021Z,3.30
2022-08-26T23:01:42.112Z,4.10
2022-08-26T23:04:09.404Z,3.70
2022-08-26T23:06:39.387Z,2.50
2022-08-26T23:09:08.507Z,3.40
2022-08-26T23:11:38.099Z,3.00
2022-08-26T23:14:09.283Z,2.50
2022-08-26T23:16:40.684Z,1.90
2022-08-26T23:19:11.557Z,3.20
2022-08-26T23:21:39.398Z,2.10
2022-08-26T23:24:07.842Z,1.70
2022-08-26T23:26:36.307Z,2.40
2022-08-26T23:29:06.272Z,2.10
2022-08-26T23:31:34.197Z,3.10
2022-08-26T23:34:19.508Z,2.90
2022-08-26T23:36:47.003Z,3.50
2022-08-26T23:39:15.057Z,3.50
2022-08-26T23:41:42.392Z,2.90
2022-08-26T23:44:09.191Z,3.80
2022-08-26T23:46:36.550Z,3.60
2022-08-26T23:49:04.654Z,3.70
2022-08-26T23:51:50.573Z,2.60
2022-08-26T23:54:17.558Z,2.80
2022-08-26T23:56:44.591Z,2.50
2022-08-26T23:59:12.318Z,3.10
